createdAt,value
2018-04-08T00:00:53.865Z,92.65
2018-04-08T00:01:53.521Z,94.08
2018-04-08T00:02:53.484Z,93.51
2018-04-08T00:03:53.447Z,93.13
2018-04-08T00:04:53.400Z,92.74
2018-04-08T00:05:53.378Z,92.08
2018-04-08T00:06:53.616Z,93.13
2018-04-08T00:07:53.285Z,94.27
2018-04-08T00:08:53.280Z,94.89
2018-04-08T00:09:53.207Z,95.17
2018-04-08T00:10:53.160Z,95.12
2018-04-08T00:11:53.118Z,95.89
2018-04-08T00:12:53.377Z,94.93
2018-04-08T00:13:53.035Z,95.32
2018-04-08T00:14:52.996Z,96.46
2018-04-08T00:15:52.941Z,95.12
2018-04-08T00:16:52.908Z,94.46
2018-04-08T00:17:52.859Z,94.46
2018-04-08T00:18:52.819Z,95.03
2018-04-08T00:19:53.076Z,95.03
2018-04-08T00:20:52.740Z,94.84
2018-04-08T00:21:52.695Z,94.65
2018-04-08T00:22:52.652Z,94.37
2018-04-08T00:23:52.625Z,95.12
2018-04-08T00:24:52.578Z,94.93
2018-04-08T00:25:52.539Z,94.93
2018-04-08T00:26:52.794Z,94.65
2018-04-08T00:27:52.453Z,95.12
2018-04-08T00:28:52.411Z,94.93
2018-04-08T00:29:52.368Z,94.56
2018-04-08T00:30:52.327Z,95.22
2018-04-08T00:31:52.286Z,94.93
2018-04-08T00:32:52.246Z,95.22
2018-04-08T00:33:52.502Z,94.74
2018-04-08T00:34:52.160Z,93.89
2018-04-08T00:35:52.129Z,93.89
2018-04-08T00:36:52.079Z,93.03
2018-04-08T00:37:52.037Z,92.89
2018-04-08T00:38:51.996Z,92.50
2018-04-08T00:39:51.943Z,91.74
2018-04-08T00:40:52.199Z,91.74
2018-04-08T00:41:51.857Z,91.27
2018-04-08T00:42:51.816Z,90.98
2018-04-08T00:43:51.776Z,91.17
2018-04-08T00:44:51.732Z,90.31
2018-04-08T00:45:51.691Z,90.60
2018-04-08T00:46:51.649Z,89.94
2018-04-08T00:47:52.069Z,90.31
2018-04-08T00:48:51.589Z,89.84
2018-04-08T00:49:51.536Z,89.65
2018-04-08T00:50:51.494Z,90.22
2018-04-08T00:51:51.452Z,90.41
2018-04-08T00:52:51.411Z,90.50
2018-04-08T00:53:51.370Z,90.84
2018-04-08T00:54:51.625Z,90.27
2018-04-08T00:55:51.275Z,91.36
2018-04-08T00:56:51.231Z,92.27
2018-04-08T00:57:51.189Z,92.18
2018-04-08T00:58:51.147Z,91.22
2018-04-08T00:59:51.106Z,91.13
2018-04-08T01:00:51.368Z,91.22
2018-04-08T01:01:51.023Z,92.18
2018-04-08T01:02:50.983Z,92.55
2018-04-08T01:03:50.938Z,92.27
2018-04-08T01:04:50.899Z,92.55
2018-04-08T01:05:50.860Z,93.41
2018-04-08T01:06:51.115Z,93.41
2018-04-08T01:07:50.772Z,93.41
2018-04-08T01:08:50.734Z,92.27
2018-04-08T01:09:50.692Z,92.32
2018-04-08T01:10:50.653Z,93.37
2018-04-08T01:11:50.619Z,93.37
2018-04-08T01:12:50.875Z,93.94
2018-04-08T01:13:50.538Z,95.08
2018-04-08T01:14:50.492Z,94.79
2018-04-08T01:15:50.447Z,94.79
2018-04-08T01:16:50.405Z,96.03
2018-04-08T01:17:50.366Z,95.46
2018-04-08T01:18:50.629Z,95.46
2018-04-08T01:19:50.276Z,95.08
2018-04-08T01:20:50.228Z,94.89
2018-04-08T01:21:50.186Z,94.98
2018-04-08T01:22:50.148Z,94.79
2018-04-08T01:23:50.103Z,94.89
2018-04-08T01:24:50.365Z,94.60
2018-04-08T01:25:50.022Z,95.17
2018-04-08T01:26:49.977Z,95.36
2018-04-08T01:27:49.945Z,96.60
2018-04-08T01:28:49.902Z,95.65
2018-04-08T01:29:49.862Z,94.79
2018-04-08T01:30:49.819Z,94.98
2018-04-08T01:31:50.084Z,95.46
2018-04-08T01:32:49.735Z,95.27
2018-04-08T01:33:49.699Z,96.89
2018-04-08T01:34:49.651Z,97.08
2018-04-08T01:35:49.613Z,98.03
2018-04-08T01:36:49.576Z,97.55
2018-04-08T01:37:49.525Z,97.55
2018-04-08T01:38:49.785Z,98.13
2018-04-08T01:39:49.444Z,97.84
2018-04-08T01:40:49.403Z,96.79
2018-04-08T01:41:49.361Z,97.08
2018-04-08T01:42:49.319Z,96.22
2018-04-08T01:43:49.265Z,96.51
2018-04-08T01:44:49.226Z,96.41
2018-04-08T01:45:49.482Z,95.27
2018-04-08T01:46:49.137Z,94.98
2018-04-08T01:47:49.097Z,94.70
2018-04-08T01:48:49.055Z,94.70
2018-04-08T01:49:49.011Z,94.60
2018-04-08T01:50:48.973Z,95.17
2018-04-08T01:51:48.938Z,95.17
2018-04-08T01:52:49.202Z,94.42
2018-04-08T01:53:48.858Z,94.89
2018-04-08T01:54:48.826Z,94.79
2018-04-08T01:55:48.775Z,94.98
2018-04-08T01:56:48.732Z,94.89
2018-04-08T01:57:48.686Z,94.98
2018-04-08T01:58:48.655Z,94.70
2018-04-08T01:59:48.892Z,94.22
2018-04-08T02:00:48.552Z,94.42
2018-04-08T02:01:48.509Z,94.89
2018-04-08T02:02:48.466Z,93.94
2018-04-08T02:03:48.425Z,94.70
2018-04-08T02:04:48.386Z,95.17
2018-04-08T02:05:48.344Z,95.17
2018-04-08T02:06:48.605Z,95.60
2018-04-08T02:07:48.259Z,95.79
2018-04-08T02:08:48.214Z,95.98
2018-04-08T02:09:48.171Z,96.65
2018-04-08T02:10:48.130Z,97.60
2018-04-08T02:11:48.088Z,97.98
2018-04-08T02:12:48.344Z,98.65
2018-04-08T02:13:48.004Z,97.88
2018-04-08T02:14:47.961Z,96.94
2018-04-08T02:15:47.930Z,96.74
2018-04-08T02:16:47.886Z,96.84
2018-04-08T02:17:47.848Z,96.84
2018-04-08T02:18:48.106Z,97.22
2018-04-08T02:19:47.761Z,96.26
2018-04-08T02:20:47.718Z,95.89
2018-04-08T02:21:47.687Z,97.03
2018-04-08T02:22:47.634Z,97.31
2018-04-08T02:23:47.581Z,97.50
2018-04-08T02:24:47.842Z,96.55
2018-04-08T02:25:47.500Z,96.65
2018-04-08T02:26:47.455Z,96.65
2018-04-08T02:27:47.412Z,97.03
2018-04-08T02:28:47.380Z,96.84
2018-04-08T02:29:47.330Z,96.74
2018-04-08T02:30:47.588Z,95.79
2018-04-08T02:31:47.256Z,96.36
2018-04-08T02:32:47.213Z,95.41
2018-04-08T02:33:47.171Z,94.74
2018-04-08T02:34:47.130Z,94.89
2018-04-08T02:35:47.089Z,94.89
2018-04-08T02:36:47.343Z,94.13
2018-04-08T02:37:47.004Z,93.65
2018-04-08T02:38:46.964Z,93.65
2018-04-08T02:39:46.920Z,93.37
2018-04-08T02:40:46.875Z,93.18
2018-04-08T02:41:46.834Z,92.13
2018-04-08T02:42:46.789Z,92.41
2018-04-08T02:43:47.049Z,92.13
2018-04-08T02:44:46.705Z,92.13
2018-04-08T02:45:46.667Z,94.22
2018-04-08T02:46:46.626Z,93.94
2018-04-08T02:47:46.573Z,94.22
2018-04-08T02:48:46.541Z,94.13
2018-04-08T02:49:46.486Z,93.94
2018-04-08T02:50:46.758Z,94.22
2018-04-08T02:51:46.401Z,92.60
2018-04-08T02:52:46.359Z,94.32
2018-04-08T02:53:46.321Z,92.41
2018-04-08T02:54:46.275Z,91.37
2018-04-08T02:55:46.243Z,91.08
2018-04-08T02:56:46.200Z,91.17
2018-04-08T02:57:46.458Z,90.51
2018-04-08T02:58:46.116Z,90.22
2018-04-08T02:59:46.074Z,91.03
2018-04-08T03:00:46.082Z,91.13
2018-04-08T03:01:45.992Z,90.61
2018-04-08T03:02:45.947Z,90.27
2018-04-08T03:03:45.909Z,90.08
2018-04-08T03:04:46.151Z,89.70
2018-04-08T03:05:45.811Z,89.79
2018-04-08T03:06:45.769Z,90.17
2018-04-08T03:07:45.736Z,90.36
2018-04-08T03:08:45.682Z,89.98
2018-04-08T03:09:45.648Z,90.27
2018-04-08T03:10:45.601Z,90.36
2018-04-08T03:11:45.857Z,90.65
2018-04-08T03:12:45.515Z,91.79
2018-04-08T03:13:45.475Z,91.60
2018-04-08T03:14:45.432Z,91.75
2018-04-08T03:15:45.395Z,91.65
2018-04-08T03:16:45.347Z,91.37
2018-04-08T03:17:45.308Z,91.65
2018-04-08T03:18:45.564Z,92.51
2018-04-08T03:19:45.230Z,92.41
2018-04-08T03:20:45.240Z,91.46
2018-04-08T03:21:45.147Z,92.32
2018-04-08T03:22:45.103Z,90.08
2018-04-08T03:23:45.062Z,88.51
2018-04-08T03:24:45.319Z,86.79
2018-04-08T03:25:44.977Z,87.36
2018-04-08T03:26:44.936Z,86.69
2018-04-08T03:27:44.890Z,87.74
2018-04-08T03:28:44.840Z,85.93
2018-04-08T03:29:44.797Z,86.03
2018-04-08T03:30:45.061Z,85.64
2018-04-08T03:31:44.715Z,84.69
2018-04-08T03:32:44.671Z,83.65
2018-04-08T03:33:44.630Z,84.07
2018-04-08T03:34:44.592Z,84.31
2018-04-08T03:35:44.556Z,84.31
2018-04-08T03:36:44.814Z,85.55
2018-04-08T03:37:44.474Z,85.74
2018-04-08T03:38:44.430Z,86.32
2018-04-08T03:39:44.436Z,86.03
2018-04-08T03:40:44.346Z,86.22
2018-04-08T03:41:44.307Z,86.22
2018-04-08T03:42:44.563Z,86.32
2018-04-08T03:43:44.219Z,87.65
2018-04-08T03:44:44.178Z,87.70
2018-04-08T03:45:44.134Z,88.27
2018-04-08T03:46:44.094Z,88.37
2018-04-08T03:47:44.051Z,87.89
2018-04-08T03:48:44.362Z,87.60
2018-04-08T03:49:43.974Z,88.18
2018-04-08T03:50:43.927Z,87.89
2018-04-08T03:51:43.874Z,87.60
2018-04-08T03:52:43.832Z,87.89
2018-04-08T03:53:43.788Z,87.89
2018-04-08T03:54:43.752Z,88.27
2018-04-08T03:55:44.005Z,89.03
2018-04-08T03:56:43.662Z,87.89
2018-04-08T03:57:43.620Z,88.08
2018-04-08T03:58:43.581Z,88.75
2018-04-08T03:59:43.547Z,88.18
2018-04-08T04:00:43.503Z,88.37
2018-04-08T04:01:43.472Z,87.51
2018-04-08T04:02:43.719Z,87.79
2018-04-08T04:03:43.384Z,87.70
2018-04-08T04:04:43.345Z,86.55
2018-04-08T04:05:43.295Z,86.98
2018-04-08T04:06:43.252Z,86.51
2018-04-08T04:07:43.204Z,87.32
2018-04-08T04:08:43.156Z,86.65
2018-04-08T04:09:43.414Z,86.46
2018-04-08T04:10:43.072Z,86.65
2018-04-08T04:11:43.030Z,86.75
2018-04-08T04:12:42.989Z,87.32
2018-04-08T04:13:42.949Z,86.84
2018-04-08T04:14:42.906Z,86.46
2018-04-08T04:15:42.865Z,87.03
2018-04-08T04:16:43.119Z,87.23
2018-04-08T04:17:42.789Z,89.22
2018-04-08T04:18:42.736Z,89.79
2018-04-08T04:19:42.745Z,89.13
2018-04-08T04:20:42.657Z,89.41
2018-04-08T04:21:42.611Z,89.79
2018-04-08T04:22:42.568Z,89.98
2018-04-08T04:23:42.840Z,89.32
2018-04-08T04:24:42.492Z,89.61
2018-04-08T04:25:42.453Z,89.75
2018-04-08T04:26:42.413Z,89.79
2018-04-08T04:27:42.371Z,90.13
2018-04-08T04:28:42.325Z,90.03
2018-04-08T04:29:42.284Z,90.22
2018-04-08T04:30:42.546Z,91.08
2018-04-08T04:31:42.198Z,90.51
2018-04-08T04:32:42.157Z,91.17
2018-04-08T04:33:42.115Z,90.51
2018-04-08T04:34:42.071Z,89.94
2018-04-08T04:35:42.028Z,90.51
2018-04-08T04:36:42.286Z,90.51
2018-04-08T04:37:41.989Z,91.08
2018-04-08T04:38:41.902Z,90.89
2018-04-08T04:39:41.850Z,91.17
2018-04-08T04:40:41.807Z,90.61
2018-04-08T04:41:41.865Z,91.08
2018-04-08T04:42:42.029Z,89.75
2018-04-08T04:43:41.779Z,90.03
2018-04-08T04:44:41.641Z,90.42
2018-04-08T04:45:41.660Z,90.13
2018-04-08T04:46:41.554Z,89.84
2018-04-08T04:47:41.517Z,89.18
2018-04-08T04:48:41.770Z,90.13
2018-04-08T04:49:41.442Z,90.13
2018-04-08T04:50:41.388Z,90.03
2018-04-08T04:51:41.349Z,89.65
2018-04-08T04:52:41.300Z,89.84
2018-04-08T04:53:41.257Z,89.37
2018-04-08T04:54:41.519Z,89.41
2018-04-08T04:55:41.183Z,88.84
2018-04-08T04:56:41.140Z,88.75
2018-04-08T04:57:41.098Z,88.46
2018-04-08T04:58:41.064Z,88.27
2018-04-08T04:59:41.014Z,87.70
2018-04-08T05:00:41.272Z,87.98
2018-04-08T05:01:40.930Z,86.84
2018-04-08T05:02:40.888Z,87.89
2018-04-08T05:03:40.838Z,87.32
2018-04-08T05:04:40.793Z,87.32
2018-04-08T05:05:40.994Z,87.23
2018-04-08T05:06:40.728Z,86.75
2018-04-08T05:07:40.968Z,86.65
2018-04-08T05:08:40.626Z,86.98
2018-04-08T05:09:40.584Z,85.93
2018-04-08T05:10:40.542Z,84.69
2018-04-08T05:11:40.516Z,84.50
2018-04-08T05:12:40.473Z,84.50
2018-04-08T05:13:40.424Z,83.84
2018-04-08T05:14:40.683Z,84.12
2018-04-08T05:15:40.342Z,83.65
2018-04-08T05:16:40.299Z,83.69
2018-04-08T05:17:40.263Z,82.64
2018-04-08T05:18:40.214Z,83.26
2018-04-08T05:19:40.184Z,83.88
2018-04-08T05:20:41.573Z,82.83
2018-04-08T05:21:41.691Z,82.92
2018-04-08T05:22:40.501Z,82.73
2018-04-08T05:23:40.465Z,81.78
2018-04-08T05:24:40.471Z,82.73
2018-04-08T05:25:40.750Z,82.64
2018-04-08T05:26:41.054Z,81.88
2018-04-08T05:27:40.289Z,82.54
2018-04-08T05:28:41.639Z,81.59
2018-04-08T05:29:40.114Z,82.07
2018-04-08T05:30:39.845Z,83.40
2018-04-08T05:31:39.823Z,82.92
2018-04-08T05:32:39.883Z,82.92
2018-04-08T05:33:40.088Z,83.21
2018-04-08T05:34:40.728Z,83.02
2018-04-08T05:35:39.935Z,82.64
2018-04-08T05:36:39.514Z,83.12
2018-04-08T05:37:39.430Z,82.54
2018-04-08T05:38:39.436Z,83.50
2018-04-08T05:39:39.342Z,82.35
2018-04-08T05:40:39.300Z,83.88
2018-04-08T05:41:39.307Z,82.83
2018-04-08T05:42:39.516Z,82.73
2018-04-08T05:43:39.167Z,83.02
2018-04-08T05:44:39.127Z,80.92
2018-04-08T05:45:39.093Z,80.49
2018-04-08T05:46:39.040Z,79.82
2018-04-08T05:47:38.999Z,79.82
2018-04-08T05:48:39.267Z,79.63
2018-04-08T05:49:38.922Z,78.58
2018-04-08T05:50:38.876Z,78.20
2018-04-08T05:51:38.835Z,77.47
2018-04-08T05:52:38.792Z,77.47
2018-04-08T05:53:38.750Z,76.81
2018-04-08T05:54:39.012Z,76.71
2018-04-08T05:55:38.670Z,77.00
2018-04-08T05:56:38.638Z,76.81
2018-04-08T05:57:38.588Z,75.89
2018-04-08T05:58:38.548Z,75.42
2018-04-08T05:59:38.569Z,75.51
2018-04-08T06:00:38.776Z,74.55
2018-04-08T06:01:38.434Z,75.03
2018-04-08T06:02:38.398Z,73.41
2018-04-08T06:03:38.354Z,74.40
2018-04-08T06:04:38.313Z,73.63
2018-04-08T06:05:38.272Z,72.87
2018-04-08T06:06:38.532Z,72.39
2018-04-08T06:07:38.199Z,71.44
2018-04-08T06:08:38.142Z,70.61
2018-04-08T06:09:38.101Z,70.52
2018-04-08T06:10:38.123Z,70.33
2018-04-08T06:11:38.023Z,69.76
2018-04-08T06:12:38.288Z,69.70
2018-04-08T06:13:37.940Z,69.21
2018-04-08T06:14:37.904Z,67.59
2018-04-08T06:15:37.871Z,67.21
2018-04-08T06:16:37.829Z,66.19
2018-04-08T06:17:37.806Z,66.19
2018-04-08T06:18:37.752Z,66.16
2018-04-08T06:19:38.011Z,66.25
2018-04-08T06:20:37.672Z,66.28
2018-04-08T06:21:37.632Z,66.09
2018-04-08T06:22:37.592Z,64.88
2018-04-08T06:23:37.552Z,63.00
2018-04-08T06:24:37.512Z,61.98
2018-04-08T06:25:37.474Z,61.21
2018-04-08T06:26:37.735Z,60.28
2018-04-08T06:27:37.398Z,59.45
2018-04-08T06:28:37.358Z,58.97
2018-04-08T06:29:37.467Z,58.01
2018-04-08T06:30:37.279Z,58.56
2018-04-08T06:31:37.231Z,59.36
2018-04-08T06:32:37.196Z,58.87
2018-04-08T06:33:37.470Z,58.20
2018-04-08T06:34:37.117Z,57.53
2018-04-08T06:35:37.334Z,58.01
2018-04-08T06:36:37.337Z,56.79
2018-04-08T06:37:37.055Z,56.57
2018-04-08T06:38:36.968Z,57.70
2018-04-08T06:39:36.945Z,58.05
2018-04-08T06:40:37.202Z,58.05
2018-04-08T06:41:36.867Z,57.98
2018-04-08T06:42:36.830Z,57.89
2018-04-08T06:43:36.846Z,57.98
2018-04-08T06:44:36.754Z,57.89
2018-04-08T06:45:36.723Z,57.31
2018-04-08T06:46:36.683Z,58.65
2018-04-08T06:47:36.941Z,57.60
2018-04-08T06:48:36.597Z,57.98
2018-04-08T06:49:36.561Z,58.46
2018-04-08T06:50:36.526Z,58.01
2018-04-08T06:51:36.578Z,57.06
2018-04-08T06:52:36.450Z,56.48
2018-04-08T06:53:36.419Z,56.29
2018-04-08T06:54:36.676Z,57.21
2018-04-08T06:55:36.344Z,57.60
2018-04-08T06:56:36.303Z,57.53
2018-04-08T06:57:36.265Z,56.48
2018-04-08T06:58:36.241Z,56.31
2018-04-08T06:59:36.192Z,56.70
2018-04-08T07:00:36.469Z,56.86
2018-04-08T07:01:36.423Z,57.63
2018-04-08T07:02:36.397Z,57.89
2018-04-08T07:03:36.065Z,57.31
2018-04-08T07:04:36.025Z,58.08
2018-04-08T07:05:35.985Z,57.21
2018-04-08T07:06:36.245Z,57.12
2018-04-08T07:07:35.908Z,57.92
2018-04-08T07:08:35.874Z,56.96
2018-04-08T07:09:35.834Z,57.72
2018-04-08T07:10:35.800Z,58.11
2018-04-08T07:11:35.752Z,57.15
2018-04-08T07:12:36.017Z,57.06
2018-04-08T07:13:35.679Z,56.64
2018-04-08T07:14:35.640Z,57.21
2018-04-08T07:15:35.604Z,56.83
2018-04-08T07:16:35.572Z,57.24
2018-04-08T07:17:35.531Z,57.82
2018-04-08T07:18:35.849Z,57.15
2018-04-08T07:19:35.466Z,57.24
2018-04-08T07:20:35.481Z,56.67
2018-04-08T07:21:35.394Z,57.12
2018-04-08T07:22:35.405Z,57.98
2018-04-08T07:23:35.318Z,57.70
2018-04-08T07:24:35.585Z,57.34
2018-04-08T07:25:35.247Z,58.01
2018-04-08T07:26:35.211Z,57.24
2018-04-08T07:27:35.219Z,56.89
2018-04-08T07:28:35.137Z,56.60
2018-04-08T07:29:35.097Z,56.31
2018-04-08T07:30:35.359Z,55.83
2018-04-08T07:31:35.023Z,56.12
2018-04-08T07:32:34.992Z,56.41
2018-04-08T07:33:34.955Z,56.38
2018-04-08T07:34:34.911Z,56.76
2018-04-08T07:35:34.914Z,56.86
2018-04-08T07:36:34.826Z,56.76
2018-04-08T07:37:35.093Z,56.67
2018-04-08T07:38:34.756Z,56.12
2018-04-08T07:39:34.721Z,55.35
2018-04-08T07:40:34.681Z,55.29
2018-04-08T07:41:34.643Z,54.13
2018-04-08T07:42:34.618Z,53.30
2018-04-08T07:43:34.583Z,53.11
2018-04-08T07:44:34.844Z,53.01
2018-04-08T07:45:34.512Z,52.53
2018-04-08T07:46:34.477Z,51.98
2018-04-08T07:47:34.490Z,51.79
2018-04-08T07:48:34.406Z,51.79
2018-04-08T07:49:34.668Z,51.59
2018-04-08T07:50:34.331Z,50.85
2018-04-08T07:51:34.582Z,51.53
2018-04-08T07:52:34.545Z,50.95
2018-04-08T07:53:34.213Z,51.64
2018-04-08T07:54:34.436Z,50.08
2018-04-08T07:55:34.140Z,49.79
2018-04-08T07:56:34.109Z,49.43
2018-04-08T07:57:34.122Z,49.63
2018-04-08T07:58:34.334Z,49.46
2018-04-08T07:59:33.999Z,48.61
2018-04-08T08:00:34.212Z,48.33
2018-04-08T08:01:33.936Z,47.39
2018-04-08T08:02:33.892Z,47.00
2018-04-08T08:03:33.860Z,46.15
2018-04-08T08:04:33.874Z,46.18
2018-04-08T08:05:34.096Z,47.27
2018-04-08T08:06:33.755Z,46.51
2018-04-08T08:07:33.739Z,44.08
2018-04-08T08:08:33.701Z,44.27
2018-04-08T08:09:33.666Z,42.85
2018-04-08T08:10:33.716Z,43.33
2018-04-08T08:11:33.602Z,43.04
2018-04-08T08:12:33.870Z,43.43
2018-04-08T08:13:33.539Z,43.24
2018-04-08T08:14:33.507Z,42.94
2018-04-08T08:15:33.470Z,42.46
2018-04-08T08:16:33.434Z,42.46
2018-04-08T08:17:33.402Z,43.41
2018-04-08T08:18:33.725Z,44.12
2018-04-08T08:19:33.398Z,41.29
2018-04-08T08:20:33.358Z,40.50
2018-04-08T08:21:33.280Z,41.25
2018-04-08T08:22:33.295Z,40.34
2018-04-08T08:23:33.275Z,42.18
2018-04-08T08:24:33.495Z,42.27
2018-04-08T08:25:33.364Z,41.86
2018-04-08T08:26:33.136Z,42.73
2018-04-08T08:27:33.157Z,43.41
2018-04-08T08:28:33.273Z,43.04
2018-04-08T08:29:33.042Z,42.27
2018-04-08T08:30:33.361Z,41.38
2018-04-08T08:31:32.984Z,42.83
2018-04-08T08:32:32.953Z,42.93
2018-04-08T08:33:32.968Z,43.58
2018-04-08T08:34:33.153Z,43.58
2018-04-08T08:35:32.923Z,43.48
2018-04-08T08:36:33.129Z,43.87
2018-04-08T08:37:32.847Z,43.58
2018-04-08T08:38:32.975Z,43.50
2018-04-08T08:39:32.730Z,43.45
2018-04-08T08:40:32.746Z,41.81
2018-04-08T08:41:32.665Z,41.88
2018-04-08T08:42:32.990Z,41.30
2018-04-08T08:43:32.884Z,42.18
2018-04-08T08:44:32.936Z,42.44
2018-04-08T08:45:32.540Z,42.08
2018-04-08T08:46:32.509Z,42.46
2018-04-08T08:47:32.492Z,41.69
2018-04-08T08:48:32.807Z,42.39
2018-04-08T08:49:32.426Z,41.13
2018-04-08T08:50:32.446Z,39.95
2018-04-08T08:51:32.367Z,41.60
2018-04-08T08:52:32.392Z,42.66
2018-04-08T08:53:32.353Z,42.27
2018-04-08T08:54:32.278Z,42.08
2018-04-08T08:55:32.640Z,41.20
2018-04-08T08:56:32.203Z,41.11
2018-04-08T08:57:32.498Z,42.05
2018-04-08T08:58:32.192Z,42.52
2018-04-08T08:59:32.161Z,42.61
2018-04-08T09:00:32.129Z,43.10
2018-04-08T09:01:32.051Z,42.15
2018-04-08T09:02:32.319Z,42.15
2018-04-08T09:03:32.037Z,43.24
2018-04-08T09:04:31.959Z,42.46
2018-04-08T09:05:32.173Z,41.50
2018-04-08T09:06:31.963Z,41.48
2018-04-08T09:07:32.062Z,42.18
2018-04-08T09:08:32.106Z,41.02
2018-04-08T09:09:32.100Z,41.11
2018-04-08T09:10:32.222Z,40.94
2018-04-08T09:11:31.797Z,41.13
2018-04-08T09:12:32.082Z,41.13
2018-04-08T09:13:31.888Z,40.57
2018-04-08T09:14:32.133Z,41.36
2018-04-08T09:15:31.680Z,41.36
2018-04-08T09:16:31.845Z,39.41
2018-04-08T09:17:32.032Z,39.99
2018-04-08T09:18:31.588Z,39.22
2018-04-08T09:19:32.718Z,40.17
2018-04-08T09:20:31.832Z,39.61
2018-04-08T09:21:31.483Z,39.32
2018-04-08T09:22:32.136Z,39.20
2018-04-08T09:23:31.423Z,39.18
2018-04-08T09:24:31.345Z,39.37
2018-04-08T09:25:31.510Z,39.87
2018-04-08T09:26:31.345Z,39.01
2018-04-08T09:27:31.264Z,38.95
2018-04-08T09:28:31.284Z,37.88
2018-04-08T09:29:31.517Z,37.60
2018-04-08T09:30:31.520Z,38.18
2018-04-08T09:31:31.430Z,38.33
2018-04-08T09:32:31.113Z,38.04
2018-04-08T09:33:31.128Z,39.37
2018-04-08T09:34:31.048Z,39.49
2018-04-08T09:35:31.520Z,39.29
2018-04-08T09:36:31.396Z,39.78
2018-04-08T09:37:30.957Z,39.57
2018-04-08T09:38:30.980Z,39.90
2018-04-08T09:39:30.975Z,39.04
2018-04-08T09:40:31.210Z,38.45
2018-04-08T09:41:31.184Z,38.43
2018-04-08T09:42:30.804Z,38.62
2018-04-08T09:43:30.819Z,38.60
2018-04-08T09:44:30.742Z,39.57
2018-04-08T09:45:30.751Z,39.18
2018-04-08T09:46:30.728Z,39.29
2018-04-08T09:47:30.953Z,39.66
2018-04-08T09:48:30.665Z,40.24
2018-04-08T09:49:30.578Z,39.57
2018-04-08T09:50:30.602Z,39.57
2018-04-08T09:51:31.348Z,39.87
2018-04-08T09:52:30.494Z,39.39
2018-04-08T09:53:31.013Z,39.59
2018-04-08T09:54:30.435Z,39.59
2018-04-08T09:55:30.669Z,39.87
2018-04-08T09:56:30.419Z,40.05
2018-04-08T09:57:30.344Z,39.86
2018-04-08T09:58:30.547Z,40.03
2018-04-08T09:59:30.756Z,41.11
2018-04-08T10:00:30.399Z,40.72
2018-04-08T10:01:32.059Z,39.66
2018-04-08T10:02:30.764Z,40.05
2018-04-08T10:03:30.864Z,39.76
2018-04-08T10:04:31.417Z,40.07
2018-04-08T10:05:30.504Z,40.28
2018-04-08T10:06:30.352Z,40.36
2018-04-08T10:07:30.392Z,40.17
2018-04-08T10:08:30.233Z,39.76
2018-04-08T10:09:30.172Z,39.95
2018-04-08T10:10:30.217Z,40.24
2018-04-08T10:11:30.071Z,40.17
2018-04-08T10:12:30.291Z,39.99
2018-04-08T10:13:30.005Z,39.99
2018-04-08T10:14:30.184Z,40.86
2018-04-08T10:15:29.924Z,40.01
2018-04-08T10:16:29.871Z,39.43
2018-04-08T10:17:29.773Z,39.04
2018-04-08T10:18:29.860Z,38.18
2018-04-08T10:19:29.989Z,38.85
2018-04-08T10:20:29.607Z,40.20
2018-04-08T10:21:29.775Z,39.34
2018-04-08T10:22:29.592Z,39.36
2018-04-08T10:23:29.882Z,39.06
2018-04-08T10:24:29.870Z,39.76
2018-04-08T10:25:29.597Z,37.73
2018-04-08T10:26:29.756Z,36.51
2018-04-08T10:27:29.571Z,37.17
2018-04-08T10:28:29.346Z,37.15
2018-04-08T10:29:29.626Z,37.34
2018-04-08T10:30:29.287Z,37.04
2018-04-08T10:31:29.315Z,37.05
2018-04-08T10:32:29.284Z,38.13
2018-04-08T10:33:29.502Z,36.32
